sensor_id;sensor_type;location;lat;lon;timestamp;P1;durP1;ratioP1;P2;durP2;ratioP2
75542;SDS011;64129;53.508;10.476;2023-12-07T00:00:37;172.10;;;32.08;;
75542;SDS011;64129;53.508;10.476;2023-12-07T00:03:04;80.00;;;25.92;;
75542;SDS011;64129;53.508;10.476;2023-12-07T00:05:33;99.18;;;28.08;;
75542;SDS011;64129;53.508;10.476;2023-12-07T00:08:00;91.20;;;26.73;;
75542;SDS011;64129;53.508;10.476;2023-12-07T00:10:27;89.82;;;25.45;;
75542;SDS011;64129;53.508;10.476;2023-12-07T00:12:53;98.03;;;27.95;;
75542;SDS011;64129;53.508;10.476;2023-12-07T00:15:20;110.88;;;25.83;;
75542;SDS011;64129;53.508;10.476;2023-12-07T00:17:47;87.35;;;27.25;;
75542;SDS011;64129;53.508;10.476;2023-12-07T00:20:14;93.68;;;27.42;;
75542;SDS011;64129;53.508;10.476;2023-12-07T00:22:41;90.07;;;27.35;;
75542;SDS011;64129;53.508;10.476;2023-12-07T00:25:08;95.93;;;25.75;;
75542;SDS011;64129;53.508;10.476;2023-12-07T00:27:35;95.50;;;28.38;;
75542;SDS011;64129;53.508;10.476;2023-12-07T00:30:02;92.03;;;28.92;;
75542;SDS011;64129;53.508;10.476;2023-12-07T00:32:30;118.80;;;31.52;;
75542;SDS011;64129;53.508;10.476;2023-12-07T00:34:57;96.03;;;28.88;;
75542;SDS011;64129;53.508;10.476;2023-12-07T00:37:23;118.25;;;29.95;;
75542;SDS011;64129;53.508;10.476;2023-12-07T00:39:50;101.05;;;28.83;;
75542;SDS011;64129;53.508;10.476;2023-12-07T00:42:17;92.03;;;28.85;;
75542;SDS011;64129;53.508;10.476;2023-12-07T00:44:44;86.30;;;26.48;;
75542;SDS011;64129;53.508;10.476;2023-12-07T00:47:11;102.15;;;27.35;;
75542;SDS011;64129;53.508;10.476;2023-12-07T00:49:38;115.30;;;30.95;;
75542;SDS011;64129;53.508;10.476;2023-12-07T00:52:07;97.80;;;26.67;;
75542;SDS011;64129;53.508;10.476;2023-12-07T00:54:33;116.32;;;28.60;;
75542;SDS011;64129;53.508;10.476;2023-12-07T00:57:00;168.95;;;33.47;;
75542;SDS011;64129;53.508;10.476;2023-12-07T00:59:27;116.93;;;30.90;;
75542;SDS011;64129;53.508;10.476;2023-12-07T01:02:03;134.63;;;30.52;;
75542;SDS011;64129;53.508;10.476;2023-12-07T01:04:31;132.25;;;29.40;;
75542;SDS011;64129;53.508;10.476;2023-12-07T01:06:58;100.47;;;27.17;;
75542;SDS011;64129;53.508;10.476;2023-12-07T01:09:26;107.68;;;27.98;;
75542;SDS011;64129;53.508;10.476;2023-12-07T01:11:53;131.68;;;31.67;;
75542;SDS011;64129;53.508;10.476;2023-12-07T01:14:19;105.65;;;29.67;;
75542;SDS011;64129;53.508;10.476;2023-12-07T01:16:46;100.13;;;29.70;;
75542;SDS011;64129;53.508;10.476;2023-12-07T01:19:13;166.48;;;32.67;;
75542;SDS011;64129;53.508;10.476;2023-12-07T01:21:43;125.57;;;28.92;;
75542;SDS011;64129;53.508;10.476;2023-12-07T01:24:10;113.80;;;29.52;;
75542;SDS011;64129;53.508;10.476;2023-12-07T01:29:05;103.43;;;28.48;;
75542;SDS011;64129;53.508;10.476;2023-12-07T01:31:32;126.75;;;29.90;;
75542;SDS011;64129;53.508;10.476;2023-12-07T01:33:59;109.28;;;29.48;;
75542;SDS011;64129;53.508;10.476;2023-12-07T01:36:26;108.30;;;27.98;;
75542;SDS011;64129;53.508;10.476;2023-12-07T01:38:52;131.70;;;30.85;;
75542;SDS011;64129;53.508;10.476;2023-12-07T01:41:20;164.90;;;32.53;;
75542;SDS011;64129;53.508;10.476;2023-12-07T01:43:47;165.15;;;32.22;;
75542;SDS011;64129;53.508;10.476;2023-12-07T01:46:14;116.35;;;31.70;;
75542;SDS011;64129;53.508;10.476;2023-12-07T01:48:43;129.05;;;30.70;;
75542;SDS011;64129;53.508;10.476;2023-12-07T01:51:11;103.05;;;28.23;;
75542;SDS011;64129;53.508;10.476;2023-12-07T01:53:38;340.48;;;41.33;;
75542;SDS011;64129;53.508;10.476;2023-12-07T01:56:06;241.38;;;37.70;;
75542;SDS011;64129;53.508;10.476;2023-12-07T01:58:35;158.88;;;33.50;;
75542;SDS011;64129;53.508;10.476;2023-12-07T02:01:02;162.25;;;34.08;;
75542;SDS011;64129;53.508;10.476;2023-12-07T02:03:30;182.10;;;34.53;;
75542;SDS011;64129;53.508;10.476;2023-12-07T02:05:58;133.35;;;31.73;;
75542;SDS011;64129;53.508;10.476;2023-12-07T02:08:25;121.88;;;32.17;;
75542;SDS011;64129;53.508;10.476;2023-12-07T02:10:52;121.47;;;28.55;;
75542;SDS011;64129;53.508;10.476;2023-12-07T02:13:22;115.05;;;31.45;;
75542;SDS011;64129;53.508;10.476;2023-12-07T02:15:49;144.73;;;31.98;;
75542;SDS011;64129;53.508;10.476;2023-12-07T02:18:32;200.52;;;35.63;;
75542;SDS011;64129;53.508;10.476;2023-12-07T02:23:47;98.82;;;28.73;;
75542;SDS011;64129;53.508;10.476;2023-12-07T02:26:18;118.53;;;32.03;;
75542;SDS011;64129;53.508;10.476;2023-12-07T02:28:46;98.22;;;28.33;;
75542;SDS011;64129;53.508;10.476;2023-12-07T02:31:13;98.72;;;30.98;;
75542;SDS011;64129;53.508;10.476;2023-12-07T02:33:40;120.18;;;31.60;;
75542;SDS011;64129;53.508;10.476;2023-12-07T02:36:07;109.35;;;28.90;;
75542;SDS011;64129;53.508;10.476;2023-12-07T02:38:34;102.95;;;27.92;;
75542;SDS011;64129;53.508;10.476;2023-12-07T02:41:03;87.82;;;29.05;;
75542;SDS011;64129;53.508;10.476;2023-12-07T02:43:30;114.63;;;27.80;;
75542;SDS011;64129;53.508;10.476;2023-12-07T02:45:57;102.35;;;28.70;;
75542;SDS011;64129;53.508;10.476;2023-12-07T02:48:24;80.28;;;27.00;;
75542;SDS011;64129;53.508;10.476;2023-12-07T02:50:52;97.20;;;26.65;;
75542;SDS011;64129;53.508;10.476;2023-12-07T02:53:19;114.70;;;29.90;;
75542;SDS011;64129;53.508;10.476;2023-12-07T02:55:46;88.18;;;26.38;;
75542;SDS011;64129;53.508;10.476;2023-12-07T02:58:12;91.93;;;28.02;;
75542;SDS011;64129;53.508;10.476;2023-12-07T03:00:39;95.78;;;26.73;;
75542;SDS011;64129;53.508;10.476;2023-12-07T03:03:06;94.55;;;28.52;;
75542;SDS011;64129;53.508;10.476;2023-12-07T03:05:32;81.20;;;25.13;;
75542;SDS011;64129;53.508;10.476;2023-12-07T03:07:59;91.93;;;27.25;;
75542;SDS011;64129;53.508;10.476;2023-12-07T03:10:26;93.78;;;28.33;;
75542;SDS011;64129;53.508;10.476;2023-12-07T03:12:53;107.00;;;27.63;;
75542;SDS011;64129;53.508;10.476;2023-12-07T03:15:19;87.75;;;26.80;;
75542;SDS011;64129;53.508;10.476;2023-12-07T03:17:46;90.53;;;26.15;;
75542;SDS011;64129;53.508;10.476;2023-12-07T03:20:13;98.68;;;29.45;;
75542;SDS011;64129;53.508;10.476;2023-12-07T03:22:40;86.03;;;27.73;;
75542;SDS011;64129;53.508;10.476;2023-12-07T03:25:07;85.53;;;26.60;;
75542;SDS011;64129;53.508;10.476;2023-12-07T03:27:33;87.97;;;27.05;;
75542;SDS011;64129;53.508;10.476;2023-12-07T03:30:00;100.03;;;27.13;;
75542;SDS011;64129;53.508;10.476;2023-12-07T03:32:27;94.43;;;27.90;;
75542;SDS011;64129;53.508;10.476;2023-12-07T03:34:54;79.40;;;23.63;;
75542;SDS011;64129;53.508;10.476;2023-12-07T03:37:20;81.28;;;27.42;;
75542;SDS011;64129;53.508;10.476;2023-12-07T03:39:47;98.22;;;29.45;;
75542;SDS011;64129;53.508;10.476;2023-12-07T03:42:14;86.05;;;28.58;;
75542;SDS011;64129;53.508;10.476;2023-12-07T03:44:41;83.32;;;27.00;;
75542;SDS011;64129;53.508;10.476;2023-12-07T03:47:08;78.25;;;24.73;;
75542;SDS011;64129;53.508;10.476;2023-12-07T03:49:35;78.63;;;23.77;;
75542;SDS011;64129;53.508;10.476;2023-12-07T03:52:02;75.13;;;25.10;;
75542;SDS011;64129;53.508;10.476;2023-12-07T03:54:29;100.18;;;26.05;;
75542;SDS011;64129;53.508;10.476;2023-12-07T03:56:56;76.45;;;23.85;;
75542;SDS011;64129;53.508;10.476;2023-12-07T03:59:22;94.57;;;25.48;;
75542;SDS011;64129;53.508;10.476;2023-12-07T04:01:49;80.32;;;23.83;;
75542;SDS011;64129;53.508;10.476;2023-12-07T04:04:16;66.03;;;23.00;;
75542;SDS011;64129;53.508;10.476;2023-12-07T04:06:43;77.47;;;23.70;;
75542;SDS011;64129;53.508;10.476;2023-12-07T04:09:09;85.20;;;25.67;;
75542;SDS011;64129;53.508;10.476;2023-12-07T04:11:36;74.78;;;24.17;;
75542;SDS011;64129;53.508;10.476;2023-12-07T04:14:03;76.22;;;22.63;;
75542;SDS011;64129;53.508;10.476;2023-12-07T04:16:30;83.70;;;24.05;;
75542;SDS011;64129;53.508;10.476;2023-12-07T04:18:57;174.98;;;30.35;;
75542;SDS011;64129;53.508;10.476;2023-12-07T04:21:24;86.78;;;25.45;;
75542;SDS011;64129;53.508;10.476;2023-12-07T04:23:51;84.75;;;24.83;;
75542;SDS011;64129;53.508;10.476;2023-12-07T04:26:18;81.43;;;24.42;;
75542;SDS011;64129;53.508;10.476;2023-12-07T04:28:44;76.43;;;23.27;;
75542;SDS011;64129;53.508;10.476;2023-12-07T04:31:11;83.05;;;24.35;;
75542;SDS011;64129;53.508;10.476;2023-12-07T04:33:39;77.20;;;23.45;;
75542;SDS011;64129;53.508;10.476;2023-12-07T04:36:06;89.75;;;25.63;;
75542;SDS011;64129;53.508;10.476;2023-12-07T04:38:34;77.85;;;23.55;;
75542;SDS011;64129;53.508;10.476;2023-12-07T04:41:00;83.00;;;25.45;;
75542;SDS011;64129;53.508;10.476;2023-12-07T04:43:27;89.53;;;25.45;;
75542;SDS011;64129;53.508;10.476;2023-12-07T04:45:54;73.00;;;24.50;;
75542;SDS011;64129;53.508;10.476;2023-12-07T04:48:20;104.47;;;26.17;;
75542;SDS011;64129;53.508;10.476;2023-12-07T04:50:47;85.85;;;24.42;;
75542;SDS011;64129;53.508;10.476;2023-12-07T04:53:14;86.90;;;24.20;;
75542;SDS011;64129;53.508;10.476;2023-12-07T04:55:41;68.70;;;23.73;;
75542;SDS011;64129;53.508;10.476;2023-12-07T04:58:12;79.30;;;24.13;;
75542;SDS011;64129;53.508;10.476;2023-12-07T05:00:39;96.00;;;25.30;;
75542;SDS011;64129;53.508;10.476;2023-12-07T05:03:06;74.85;;;23.73;;
75542;SDS011;64129;53.508;10.476;2023-12-07T05:05:33;70.07;;;22.05;;
75542;SDS011;64129;53.508;10.476;2023-12-07T05:08:00;72.90;;;25.05;;
75542;SDS011;64129;53.508;10.476;2023-12-07T05:10:26;64.72;;;23.25;;
75542;SDS011;64129;53.508;10.476;2023-12-07T05:12:53;77.10;;;24.77;;
75542;SDS011;64129;53.508;10.476;2023-12-07T05:15:20;81.13;;;23.35;;
75542;SDS011;64129;53.508;10.476;2023-12-07T05:17:47;76.63;;;23.98;;
75542;SDS011;64129;53.508;10.476;2023-12-07T05:20:13;74.22;;;23.92;;
75542;SDS011;64129;53.508;10.476;2023-12-07T05:22:41;75.57;;;22.90;;
75542;SDS011;64129;53.508;10.476;2023-12-07T05:25:08;84.97;;;25.55;;
75542;SDS011;64129;53.508;10.476;2023-12-07T05:27:35;78.72;;;23.48;;
75542;SDS011;64129;53.508;10.476;2023-12-07T05:30:02;86.75;;;26.65;;
75542;SDS011;64129;53.508;10.476;2023-12-07T05:32:29;76.35;;;24.65;;
75542;SDS011;64129;53.508;10.476;2023-12-07T05:34:56;93.95;;;25.00;;
75542;SDS011;64129;53.508;10.476;2023-12-07T05:37:22;98.70;;;26.23;;
75542;SDS011;64129;53.508;10.476;2023-12-07T05:39:49;104.45;;;26.75;;
75542;SDS011;64129;53.508;10.476;2023-12-07T05:42:17;89.55;;;26.30;;
75542;SDS011;64129;53.508;10.476;2023-12-07T05:44:43;83.45;;;25.30;;
75542;SDS011;64129;53.508;10.476;2023-12-07T05:47:10;89.78;;;23.27;;
75542;SDS011;64129;53.508;10.476;2023-12-07T05:49:37;94.32;;;26.80;;
75542;SDS011;64129;53.508;10.476;2023-12-07T05:52:04;186.60;;;32.25;;
75542;SDS011;64129;53.508;10.476;2023-12-07T05:54:31;86.72;;;24.05;;
75542;SDS011;64129;53.508;10.476;2023-12-07T05:56:58;85.28;;;24.80;;
75542;SDS011;64129;53.508;10.476;2023-12-07T05:59:24;94.03;;;27.67;;
75542;SDS011;64129;53.508;10.476;2023-12-07T06:01:51;100.75;;;27.40;;
75542;SDS011;64129;53.508;10.476;2023-12-07T06:04:19;95.53;;;25.00;;
75542;SDS011;64129;53.508;10.476;2023-12-07T06:06:46;90.82;;;25.10;;
75542;SDS011;64129;53.508;10.476;2023-12-07T06:09:14;95.55;;;27.30;;
75542;SDS011;64129;53.508;10.476;2023-12-07T06:11:40;87.45;;;26.15;;
75542;SDS011;64129;53.508;10.476;2023-12-07T06:14:07;87.78;;;24.63;;
75542;SDS011;64129;53.508;10.476;2023-12-07T06:16:34;97.97;;;26.77;;
75542;SDS011;64129;53.508;10.476;2023-12-07T06:19:01;97.00;;;24.35;;
75542;SDS011;64129;53.508;10.476;2023-12-07T06:21:29;96.78;;;25.17;;
75542;SDS011;64129;53.508;10.476;2023-12-07T06:23:56;108.47;;;27.25;;
75542;SDS011;64129;53.508;10.476;2023-12-07T06:26:25;91.68;;;25.80;;
75542;SDS011;64129;53.508;10.476;2023-12-07T06:28:51;83.70;;;24.55;;
75542;SDS011;64129;53.508;10.476;2023-12-07T06:31:18;77.13;;;24.92;;
75542;SDS011;64129;53.508;10.476;2023-12-07T06:33:49;99.70;;;26.02;;
75542;SDS011;64129;53.508;10.476;2023-12-07T06:36:22;89.65;;;26.92;;
75542;SDS011;64129;53.508;10.476;2023-12-07T06:38:50;80.80;;;24.38;;
75542;SDS011;64129;53.508;10.476;2023-12-07T06:41:17;82.30;;;25.27;;
75542;SDS011;64129;53.508;10.476;2023-12-07T06:43:44;78.00;;;23.38;;
75542;SDS011;64129;53.508;10.476;2023-12-07T06:46:12;81.70;;;26.00;;
75542;SDS011;64129;53.508;10.476;2023-12-07T06:48:39;105.18;;;27.48;;
75542;SDS011;64129;53.508;10.476;2023-12-07T06:51:07;89.60;;;26.33;;
75542;SDS011;64129;53.508;10.476;2023-12-07T06:53:34;85.57;;;26.05;;
75542;SDS011;64129;53.508;10.476;2023-12-07T06:56:01;127.13;;;27.55;;
75542;SDS011;64129;53.508;10.476;2023-12-07T06:58:27;82.13;;;26.10;;
75542;SDS011;64129;53.508;10.476;2023-12-07T07:00:54;78.70;;;24.70;;
75542;SDS011;64129;53.508;10.476;2023-12-07T07:03:21;78.20;;;25.48;;
75542;SDS011;64129;53.508;10.476;2023-12-07T07:05:48;81.45;;;25.27;;
75542;SDS011;64129;53.508;10.476;2023-12-07T07:08:15;92.47;;;27.67;;
75542;SDS011;64129;53.508;10.476;2023-12-07T07:10:43;81.45;;;26.38;;
75542;SDS011;64129;53.508;10.476;2023-12-07T07:13:10;82.90;;;25.50;;
75542;SDS011;64129;53.508;10.476;2023-12-07T07:15:37;120.53;;;27.77;;
75542;SDS011;64129;53.508;10.476;2023-12-07T07:18:03;87.28;;;27.02;;
75542;SDS011;64129;53.508;10.476;2023-12-07T07:20:31;84.43;;;24.73;;
75542;SDS011;64129;53.508;10.476;2023-12-07T07:22:58;79.20;;;25.58;;
75542;SDS011;64129;53.508;10.476;2023-12-07T07:25:25;77.72;;;25.02;;
75542;SDS011;64129;53.508;10.476;2023-12-07T07:27:52;76.80;;;24.33;;
75542;SDS011;64129;53.508;10.476;2023-12-07T07:30:21;78.32;;;25.92;;
75542;SDS011;64129;53.508;10.476;2023-12-07T07:32:48;87.53;;;27.65;;
75542;SDS011;64129;53.508;10.476;2023-12-07T07:35:15;81.25;;;26.48;;
75542;SDS011;64129;53.508;10.476;2023-12-07T07:37:42;97.53;;;28.58;;
75542;SDS011;64129;53.508;10.476;2023-12-07T07:40:09;86.07;;;28.58;;
75542;SDS011;64129;53.508;10.476;2023-12-07T07:45:06;71.53;;;25.00;;
75542;SDS011;64129;53.508;10.476;2023-12-07T07:47:34;66.15;;;24.60;;
75542;SDS011;64129;53.508;10.476;2023-12-07T07:50:01;82.47;;;25.85;;
75542;SDS011;64129;53.508;10.476;2023-12-07T07:52:34;70.97;;;25.48;;
75542;SDS011;64129;53.508;10.476;2023-12-07T07:55:03;73.53;;;26.17;;
75542;SDS011;64129;53.508;10.476;2023-12-07T07:57:31;69.07;;;24.83;;
75542;SDS011;64129;53.508;10.476;2023-12-07T07:59:58;87.97;;;26.95;;
75542;SDS011;64129;53.508;10.476;2023-12-07T08:02:24;71.53;;;23.83;;
75542;SDS011;64129;53.508;10.476;2023-12-07T08:04:51;66.25;;;23.38;;
75542;SDS011;64129;53.508;10.476;2023-12-07T08:07:18;69.68;;;24.58;;
75542;SDS011;64129;53.508;10.476;2023-12-07T08:09:45;77.05;;;24.50;;
75542;SDS011;64129;53.508;10.476;2023-12-07T08:12:12;64.45;;;23.38;;
75542;SDS011;64129;53.508;10.476;2023-12-07T08:14:39;65.85;;;25.08;;
75542;SDS011;64129;53.508;10.476;2023-12-07T08:17:06;63.65;;;24.45;;
75542;SDS011;64129;53.508;10.476;2023-12-07T08:19:33;66.80;;;25.10;;
75542;SDS011;64129;53.508;10.476;2023-12-07T08:21:59;68.93;;;23.63;;
75542;SDS011;64129;53.508;10.476;2023-12-07T08:24:26;76.30;;;24.30;;
75542;SDS011;64129;53.508;10.476;2023-12-07T08:26:53;58.55;;;22.20;;
75542;SDS011;64129;53.508;10.476;2023-12-07T08:29:20;63.28;;;24.63;;
75542;SDS011;64129;53.508;10.476;2023-12-07T08:31:47;74.80;;;24.80;;
75542;SDS011;64129;53.508;10.476;2023-12-07T08:34:14;77.22;;;24.02;;
75542;SDS011;64129;53.508;10.476;2023-12-07T08:36:40;80.25;;;25.00;;
75542;SDS011;64129;53.508;10.476;2023-12-07T08:39:07;69.03;;;25.92;;
75542;SDS011;64129;53.508;10.476;2023-12-07T08:41:37;73.07;;;24.33;;
75542;SDS011;64129;53.508;10.476;2023-12-07T08:44:04;66.38;;;24.85;;
75542;SDS011;64129;53.508;10.476;2023-12-07T08:46:32;61.15;;;24.60;;
75542;SDS011;64129;53.508;10.476;2023-12-07T08:48:58;78.47;;;26.23;;
75542;SDS011;64129;53.508;10.476;2023-12-07T08:51:25;69.53;;;25.77;;
75542;SDS011;64129;53.508;10.476;2023-12-07T08:53:52;100.95;;;27.63;;
75542;SDS011;64129;53.508;10.476;2023-12-07T08:56:20;88.65;;;27.02;;
75542;SDS011;64129;53.508;10.476;2023-12-07T08:58:46;89.10;;;24.90;;
75542;SDS011;64129;53.508;10.476;2023-12-07T09:01:13;68.22;;;26.08;;
75542;SDS011;64129;53.508;10.476;2023-12-07T09:03:44;66.30;;;26.20;;
75542;SDS011;64129;53.508;10.476;2023-12-07T09:06:12;107.57;;;28.92;;
75542;SDS011;64129;53.508;10.476;2023-12-07T09:08:38;73.95;;;24.77;;
75542;SDS011;64129;53.508;10.476;2023-12-07T09:11:05;79.78;;;25.40;;
75542;SDS011;64129;53.508;10.476;2023-12-07T09:13:32;71.22;;;26.42;;
75542;SDS011;64129;53.508;10.476;2023-12-07T09:16:00;70.53;;;25.23;;
75542;SDS011;64129;53.508;10.476;2023-12-07T09:18:26;88.05;;;26.35;;
75542;SDS011;64129;53.508;10.476;2023-12-07T09:20:53;74.18;;;26.52;;
75542;SDS011;64129;53.508;10.476;2023-12-07T09:23:20;64.70;;;25.92;;
75542;SDS011;64129;53.508;10.476;2023-12-07T09:25:46;87.15;;;28.90;;
75542;SDS011;64129;53.508;10.476;2023-12-07T09:28:13;77.75;;;25.90;;
75542;SDS011;64129;53.508;10.476;2023-12-07T09:30:40;72.60;;;27.23;;
75542;SDS011;64129;53.508;10.476;2023-12-07T09:33:07;71.60;;;26.20;;
75542;SDS011;64129;53.508;10.476;2023-12-07T09:35:38;81.60;;;27.90;;
75542;SDS011;64129;53.508;10.476;2023-12-07T09:38:05;102.93;;;28.50;;
75542;SDS011;64129;53.508;10.476;2023-12-07T09:40:33;68.35;;;25.92;;
75542;SDS011;64129;53.508;10.476;2023-12-07T09:43:00;70.30;;;26.60;;
75542;SDS011;64129;53.508;10.476;2023-12-07T09:45:27;64.57;;;27.27;;
75542;SDS011;64129;53.508;10.476;2023-12-07T09:47:54;62.67;;;24.55;;
75542;SDS011;64129;53.508;10.476;2023-12-07T09:50:25;69.88;;;28.60;;
75542;SDS011;64129;53.508;10.476;2023-12-07T09:52:54;69.90;;;27.63;;
75542;SDS011;64129;53.508;10.476;2023-12-07T09:55:25;60.05;;;23.63;;
75542;SDS011;64129;53.508;10.476;2023-12-07T09:57:52;66.80;;;27.48;;
75542;SDS011;64129;53.508;10.476;2023-12-07T10:00:23;70.15;;;28.13;;
75542;SDS011;64129;53.508;10.476;2023-12-07T10:02:51;70.35;;;26.65;;
75542;SDS011;64129;53.508;10.476;2023-12-07T10:05:19;73.13;;;27.98;;
75542;SDS011;64129;53.508;10.476;2023-12-07T10:07:46;64.00;;;25.88;;
75542;SDS011;64129;53.508;10.476;2023-12-07T10:10:15;66.25;;;27.60;;
75542;SDS011;64129;53.508;10.476;2023-12-07T10:12:52;67.63;;;26.10;;
75542;SDS011;64129;53.508;10.476;2023-12-07T10:15:21;70.28;;;25.75;;
75542;SDS011;64129;53.508;10.476;2023-12-07T10:17:50;65.65;;;27.08;;
75542;SDS011;64129;53.508;10.476;2023-12-07T10:20:28;63.42;;;25.50;;
75542;SDS011;64129;53.508;10.476;2023-12-07T10:23:08;65.88;;;26.63;;
75542;SDS011;64129;53.508;10.476;2023-12-07T10:25:37;68.70;;;28.15;;
75542;SDS011;64129;53.508;10.476;2023-12-07T10:28:08;66.28;;;27.48;;
75542;SDS011;64129;53.508;10.476;2023-12-07T10:30:38;71.28;;;24.70;;
75542;SDS011;64129;53.508;10.476;2023-12-07T10:33:08;70.97;;;27.27;;
75542;SDS011;64129;53.508;10.476;2023-12-07T10:35:38;71.43;;;27.08;;
75542;SDS011;64129;53.508;10.476;2023-12-07T10:38:09;59.75;;;24.02;;
75542;SDS011;64129;53.508;10.476;2023-12-07T10:40:36;65.28;;;25.95;;
75542;SDS011;64129;53.508;10.476;2023-12-07T10:43:07;64.72;;;26.50;;
75542;SDS011;64129;53.508;10.476;2023-12-07T10:45:35;74.25;;;27.15;;
75542;SDS011;64129;53.508;10.476;2023-12-07T10:50:35;75.85;;;26.58;;
75542;SDS011;64129;53.508;10.476;2023-12-07T10:53:09;69.38;;;23.63;;
75542;SDS011;64129;53.508;10.476;2023-12-07T10:55:40;68.63;;;24.25;;
75542;SDS011;64129;53.508;10.476;2023-12-07T10:58:38;65.20;;;23.45;;
75542;SDS011;64129;53.508;10.476;2023-12-07T11:03:35;54.40;;;21.65;;
75542;SDS011;64129;53.508;10.476;2023-12-07T11:06:03;91.63;;;27.60;;
75542;SDS011;64129;53.508;10.476;2023-12-07T11:11:21;72.28;;;26.45;;
75542;SDS011;64129;53.508;10.476;2023-12-07T11:13:59;61.00;;;24.63;;
75542;SDS011;64129;53.508;10.476;2023-12-07T11:16:32;71.13;;;28.40;;
75542;SDS011;64129;53.508;10.476;2023-12-07T11:19:01;86.30;;;28.23;;
75542;SDS011;64129;53.508;10.476;2023-12-07T11:21:28;64.30;;;24.10;;
75542;SDS011;64129;53.508;10.476;2023-12-07T11:23:55;68.45;;;25.70;;
75542;SDS011;64129;53.508;10.476;2023-12-07T11:26:22;61.63;;;24.55;;
75542;SDS011;64129;53.508;10.476;2023-12-07T11:28:50;57.17;;;23.60;;
75542;SDS011;64129;53.508;10.476;2023-12-07T11:31:17;65.43;;;24.92;;
75542;SDS011;64129;53.508;10.476;2023-12-07T11:36:14;61.63;;;23.08;;
75542;SDS011;64129;53.508;10.476;2023-12-07T11:41:29;56.92;;;22.13;;
75542;SDS011;64129;53.508;10.476;2023-12-07T11:44:00;70.05;;;26.10;;
75542;SDS011;64129;53.508;10.476;2023-12-07T11:46:27;65.10;;;27.02;;
75542;SDS011;64129;53.508;10.476;2023-12-07T11:48:54;59.83;;;23.55;;
75542;SDS011;64129;53.508;10.476;2023-12-07T11:51:21;61.83;;;24.63;;
75542;SDS011;64129;53.508;10.476;2023-12-07T11:53:48;55.97;;;24.58;;
75542;SDS011;64129;53.508;10.476;2023-12-07T11:58:46;51.65;;;22.83;;
75542;SDS011;64129;53.508;10.476;2023-12-07T12:01:14;62.05;;;23.88;;
75542;SDS011;64129;53.508;10.476;2023-12-07T12:03:43;52.05;;;22.65;;
75542;SDS011;64129;53.508;10.476;2023-12-07T12:06:09;54.83;;;23.30;;
75542;SDS011;64129;53.508;10.476;2023-12-07T12:08:39;52.25;;;22.48;;
75542;SDS011;64129;53.508;10.476;2023-12-07T12:11:07;55.83;;;23.42;;
75542;SDS011;64129;53.508;10.476;2023-12-07T12:13:34;50.83;;;22.13;;
75542;SDS011;64129;53.508;10.476;2023-12-07T12:16:02;59.00;;;22.80;;
75542;SDS011;64129;53.508;10.476;2023-12-07T12:18:30;53.97;;;23.90;;
75542;SDS011;64129;53.508;10.476;2023-12-07T12:20:57;55.13;;;22.20;;
75542;SDS011;64129;53.508;10.476;2023-12-07T12:23:25;57.83;;;24.90;;
75542;SDS011;64129;53.508;10.476;2023-12-07T12:25:52;50.63;;;22.92;;
75542;SDS011;64129;53.508;10.476;2023-12-07T12:28:20;54.42;;;23.65;;
75542;SDS011;64129;53.508;10.476;2023-12-07T12:30:48;47.90;;;22.50;;
75542;SDS011;64129;53.508;10.476;2023-12-07T12:33:17;60.53;;;23.77;;
75542;SDS011;64129;53.508;10.476;2023-12-07T12:35:44;50.50;;;22.20;;
75542;SDS011;64129;53.508;10.476;2023-12-07T12:38:11;56.40;;;23.15;;
75542;SDS011;64129;53.508;10.476;2023-12-07T12:40:41;49.42;;;22.50;;
75542;SDS011;64129;53.508;10.476;2023-12-07T12:43:09;54.88;;;22.83;;
75542;SDS011;64129;53.508;10.476;2023-12-07T12:45:37;48.35;;;21.65;;
75542;SDS011;64129;53.508;10.476;2023-12-07T12:48:04;50.67;;;23.33;;
75542;SDS011;64129;53.508;10.476;2023-12-07T12:50:35;52.08;;;23.25;;
75542;SDS011;64129;53.508;10.476;2023-12-07T12:53:03;47.13;;;20.48;;
75542;SDS011;64129;53.508;10.476;2023-12-07T12:55:35;50.85;;;23.90;;
75542;SDS011;64129;53.508;10.476;2023-12-07T12:58:03;44.80;;;23.00;;
75542;SDS011;64129;53.508;10.476;2023-12-07T13:00:33;52.10;;;23.27;;
75542;SDS011;64129;53.508;10.476;2023-12-07T13:03:04;45.22;;;22.10;;
75542;SDS011;64129;53.508;10.476;2023-12-07T13:05:32;48.40;;;21.48;;
75542;SDS011;64129;53.508;10.476;2023-12-07T13:08:01;45.63;;;21.33;;
75542;SDS011;64129;53.508;10.476;2023-12-07T13:10:30;41.35;;;21.35;;
75542;SDS011;64129;53.508;10.476;2023-12-07T13:12:58;47.80;;;23.08;;
75542;SDS011;64129;53.508;10.476;2023-12-07T13:15:28;46.45;;;21.42;;
75542;SDS011;64129;53.508;10.476;2023-12-07T13:17:56;45.95;;;20.90;;
75542;SDS011;64129;53.508;10.476;2023-12-07T13:20:22;47.65;;;21.13;;
75542;SDS011;64129;53.508;10.476;2023-12-07T13:22:49;40.97;;;20.25;;
75542;SDS011;64129;53.508;10.476;2023-12-07T13:25:16;37.67;;;18.88;;
75542;SDS011;64129;53.508;10.476;2023-12-07T13:27:43;41.33;;;21.50;;
75542;SDS011;64129;53.508;10.476;2023-12-07T13:30:10;42.70;;;20.00;;
75542;SDS011;64129;53.508;10.476;2023-12-07T13:32:37;43.00;;;21.05;;
75542;SDS011;64129;53.508;10.476;2023-12-07T13:35:04;45.20;;;21.08;;
75542;SDS011;64129;53.508;10.476;2023-12-07T13:37:32;43.38;;;21.65;;
75542;SDS011;64129;53.508;10.476;2023-12-07T13:40:02;46.67;;;21.02;;
75542;SDS011;64129;53.508;10.476;2023-12-07T13:42:30;42.10;;;20.55;;
75542;SDS011;64129;53.508;10.476;2023-12-07T13:44:58;43.67;;;20.50;;
75542;SDS011;64129;53.508;10.476;2023-12-07T13:47:26;48.25;;;21.38;;
75542;SDS011;64129;53.508;10.476;2023-12-07T13:50:03;45.80;;;21.05;;
75542;SDS011;64129;53.508;10.476;2023-12-07T13:52:31;50.05;;;24.75;;
75542;SDS011;64129;53.508;10.476;2023-12-07T13:54:58;49.25;;;22.70;;
75542;SDS011;64129;53.508;10.476;2023-12-07T13:57:25;44.72;;;19.80;;
75542;SDS011;64129;53.508;10.476;2023-12-07T13:59:53;41.05;;;21.50;;
75542;SDS011;64129;53.508;10.476;2023-12-07T14:02:20;44.97;;;21.80;;
75542;SDS011;64129;53.508;10.476;2023-12-07T14:04:47;37.60;;;18.80;;
75542;SDS011;64129;53.508;10.476;2023-12-07T14:07:20;47.42;;;21.92;;
75542;SDS011;64129;53.508;10.476;2023-12-07T14:09:51;46.60;;;21.73;;
75542;SDS011;64129;53.508;10.476;2023-12-07T14:12:18;44.97;;;20.52;;
75542;SDS011;64129;53.508;10.476;2023-12-07T14:14:46;45.35;;;20.30;;
75542;SDS011;64129;53.508;10.476;2023-12-07T14:19:42;44.08;;;20.30;;
75542;SDS011;64129;53.508;10.476;2023-12-07T14:22:09;44.80;;;21.00;;
75542;SDS011;64129;53.508;10.476;2023-12-07T14:24:36;43.47;;;20.40;;
75542;SDS011;64129;53.508;10.476;2023-12-07T14:27:03;45.78;;;21.40;;
75542;SDS011;64129;53.508;10.476;2023-12-07T14:29:30;50.55;;;20.85;;
75542;SDS011;64129;53.508;10.476;2023-12-07T14:31:58;57.80;;;24.52;;
75542;SDS011;64129;53.508;10.476;2023-12-07T14:34:26;51.22;;;22.48;;